Time;durP1;ratioP1;P1;durP2;ratioP2;P2;SDS_P1;SDS_P2;PMS_P1;PMS_P2;Temp;Humidity;BMP_temperature;BMP_pressure;BME280_temperature;BME280_humidity;BME280_pressure;Samples;Min_cycle;Max_cycle;Signal;HPM_P1;HPM_P2
2022/10/27 00:01:22;;;;;;;7.97;4.95;;;;;;;9.51;100.00;96643.31;5027979;28;24443;-68
2022/10/27 00:03:51;;;;;;;9.45;4.25;;;;;;;9.53;100.00;96646.66;5028864;28;20796;-68
2022/10/27 00:06:18;;;;;;;7.80;3.50;;;;;;;9.53;100.00;96655.28;5028930;28;24435;-68
2022/10/27 00:08:45;;;;;;;5.13;4.00;;;;;;;9.51;100.00;96656.25;5027783;28;20804;-68
2022/10/27 00:11:11;;;;;;;8.83;4.67;;;;;;;9.41;100.00;96656.63;5022313;28;25055;-69
2022/10/27 00:13:38;;;;;;;8.88;4.68;;;;;;;9.36;100.00;96656.00;5026352;28;20781;-68
2022/10/27 00:16:07;;;;;;;8.25;5.40;;;;;;;9.41;100.00;96660.97;5028000;28;24436;-68
2022/10/27 00:18:34;;;;;;;7.35;5.00;;;;;;;9.32;100.00;96659.66;5023553;28;24443;-69
2022/10/27 00:21:04;;;;;;;8.38;4.80;;;;;;;9.28;100.00;96654.69;5016615;28;24448;-68
2022/10/27 00:23:31;;;;;;;9.38;4.65;;;;;;;9.42;100.00;96658.34;5025954;28;24440;-67
2022/10/27 00:25:59;;;;;;;12.07;4.88;;;;;;;9.42;100.00;96655.75;5027199;28;24498;-68
2022/10/27 00:28:26;;;;;;;16.08;5.00;;;;;;;9.37;100.00;96662.03;5022501;28;24485;-68
2022/10/27 00:30:58;;;;;;;8.18;4.55;;;;;;;9.44;100.00;96660.84;5026533;28;24439;-69
2022/10/27 00:33:25;;;;;;;73.10;5.35;;;;;;;9.21;100.00;96659.28;5028152;28;24501;-69
2022/10/27 00:35:51;;;;;;;73.40;4.40;;;;;;;9.14;100.00;96663.03;5018436;28;24432;-69
2022/10/27 00:38:19;;;;;;;6.32;2.90;;;;;;;9.30;100.00;96664.03;5020271;28;25000;-69
2022/10/27 00:40:45;;;;;;;29.10;3.78;;;;;;;9.42;100.00;96663.50;5022776;28;24447;-70
2022/10/27 00:43:30;;;;;;;24.23;4.55;;;;;;;9.34;100.00;96667.31;5027736;28;25018;-70
2022/10/27 00:46:00;;;;;;;16.80;4.72;;;;;;;9.29;100.00;96666.69;5020014;28;20784;-70
2022/10/27 00:48:29;;;;;;;19.92;4.25;;;;;;;9.16;100.00;96676.72;5021208;28;20843;-69
2022/10/27 00:50:56;;;;;;;12.60;4.25;;;;;;;9.10;100.00;96661.47;5029008;28;20777;-69
2022/10/27 00:53:24;;;;;;;22.40;4.47;;;;;;;9.09;100.00;96673.56;5027756;28;20780;-70
2022/10/27 00:55:50;;;;;;;16.77;4.17;;;;;;;9.05;100.00;96664.25;5020919;28;21239;-70
2022/10/27 00:58:19;;;;;;;11.30;4.10;;;;;;;9.01;100.00;96665.31;5025025;28;20777;-70
2022/10/27 01:00:46;;;;;;;8.80;3.65;;;;;;;9.04;100.00;96664.31;5028027;28;20818;-70
2022/10/27 01:03:16;;;;;;;19.88;3.63;;;;;;;9.04;100.00;96665.16;5026210;28;21333;-70
2022/10/27 01:05:43;;;;;;;13.98;3.10;;;;;;;9.11;100.00;96663.16;5021292;28;20818;-70
2022/10/27 01:08:09;;;;;;;10.27;3.13;;;;;;;9.12;100.00;96667.41;5028484;28;24829;-68
2022/10/27 01:10:37;;;;;;;7.70;3.20;;;;;;;9.13;100.00;96669.94;5034534;28;24436;-70
2022/10/27 01:13:04;;;;;;;6.45;3.03;;;;;;;9.15;100.00;96665.53;5032142;28;24437;-69
2022/10/27 01:15:39;;;;;;;13.32;2.85;;;;;;;9.15;100.00;96665.53;5025050;28;25072;-69
2022/10/27 01:18:17;;;;;;;10.52;3.00;;;;;;;9.04;100.00;96672.91;5028441;28;20818;-69
2022/10/27 01:21:01;;;;;;;7.25;3.10;;;;;;;9.02;100.00;96664.38;5035791;28;24447;-69
2022/10/27 01:23:44;;;;;;;6.88;2.92;;;;;;;8.95;100.00;96661.22;5024982;28;21254;-68
2022/10/27 01:26:39;;;;;;;9.00;2.60;;;;;;;8.86;100.00;96658.16;5027790;28;20704;-67
2022/10/27 01:29:29;;;;;;;12.65;2.72;;;;;;;8.80;100.00;96656.69;5027339;28;20808;-68
2022/10/27 01:32:08;;;;;;;7.97;2.70;;;;;;;8.71;100.00;96650.19;5023242;28;24435;-68
2022/10/27 01:34:42;;;;;;;6.97;2.60;;;;;;;8.72;100.00;96656.19;5027996;28;20659;-68
2022/10/27 01:37:14;;;;;;;7.60;3.08;;;;;;;8.68;100.00;96652.88;5029828;28;20816;-69
2022/10/27 01:39:44;;;;;;;6.15;2.42;;;;;;;8.66;100.00;96659.00;5035372;28;20795;-68
2022/10/27 01:42:17;;;;;;;6.53;2.50;;;;;;;8.62;100.00;96657.44;5025063;28;20734;-69
2022/10/27 01:44:47;;;;;;;12.00;2.63;;;;;;;8.46;100.00;96660.66;5032101;28;24439;-69
2022/10/27 01:47:16;;;;;;;5.93;2.17;;;;;;;8.50;100.00;96648.47;5033416;28;24527;-70
2022/10/27 01:49:43;;;;;;;6.75;2.35;;;;;;;8.50;100.00;96642.47;5034852;28;20776;-69
2022/10/27 01:52:41;;;;;;;5.32;2.40;;;;;;;8.48;100.00;96638.19;5024560;28;20788;-70
2022/10/27 01:55:13;;;;;;;5.95;2.17;;;;;;;8.51;100.00;96638.97;5024467;28;20774;-66
2022/10/27 01:57:52;;;;;;;4.03;2.42;;;;;;;8.53;100.00;96632.00;5034058;28;21115;-69
2022/10/27 02:00:18;;;;;;;3.08;2.08;;;;;;;8.65;100.00;96641.84;5031046;28;20656;-70
2022/10/27 02:02:48;;;;;;;6.18;2.28;;;;;;;8.70;100.00;96643.31;5026007;28;20799;-69
2022/10/27 02:05:22;;;;;;;4.70;3.33;;;;;;;8.68;100.00;96644.31;5028146;28;20769;-69
2022/10/27 02:07:54;;;;;;;2.97;2.35;;;;;;;8.62;100.00;96639.38;5033198;28;20675;-70
2022/10/27 02:10:25;;;;;;;5.50;2.60;;;;;;;8.68;100.00;96646.88;5027782;28;20727;-69
2022/10/27 02:12:53;;;;;;;2.50;2.30;;;;;;;8.77;100.00;96643.91;5032411;28;20684;-69
2022/10/27 02:15:28;;;;;;;3.72;2.38;;;;;;;8.86;100.00;96646.13;5026900;28;24539;-69
2022/10/27 02:18:01;;;;;;;13.70;2.43;;;;;;;8.84;100.00;96632.41;5034675;28;20708;-69
2022/10/27 02:20:33;;;;;;;12.65;2.22;;;;;;;8.91;100.00;96633.84;5021937;28;24440;-69
2022/10/27 02:23:02;;;;;;;4.88;2.50;;;;;;;8.79;100.00;96634.38;5031570;28;21189;-68
2022/10/27 02:25:37;;;;;;;7.32;2.20;;;;;;;8.72;100.00;96638.94;5027960;28;20765;-70
2022/10/27 02:28:08;;;;;;;4.78;2.40;;;;;;;8.67;100.00;96640.00;5020158;28;24834;-70
2022/10/27 02:30:35;;;;;;;9.63;2.80;;;;;;;8.63;100.00;96635.88;5021945;28;24432;-69
2022/10/27 02:33:04;;;;;;;3.77;2.47;;;;;;;8.67;100.00;96635.69;5027665;28;24981;-69
2022/10/27 02:35:31;;;;;;;12.00;2.65;;;;;;;8.65;100.00;96640.09;5029437;28;21512;-69
2022/10/27 02:37:59;;;;;;;10.65;2.85;;;;;;;8.61;100.00;96635.97;5019243;28;20878;-70
2022/10/27 02:40:26;;;;;;;12.63;2.10;;;;;;;8.62;100.00;96635.03;5027494;28;21270;-70
2022/10/27 02:42:52;;;;;;;7.03;2.20;;;;;;;8.61;100.00;96641.13;5023008;28;20782;-70
2022/10/27 02:45:20;;;;;;;12.50;2.33;;;;;;;8.60;100.00;96639.44;5026438;28;20774;-70
2022/10/27 02:47:46;;;;;;;9.73;2.40;;;;;;;8.54;100.00;96638.84;5028279;28;21450;-70
2022/10/27 02:50:14;;;;;;;6.63;2.58;;;;;;;8.47;100.00;96633.09;5026276;28;20780;-70
2022/10/27 02:52:42;;;;;;;6.25;2.05;;;;;;;8.44;100.00;96646.13;5030644;28;20822;-70
2022/10/27 02:55:09;;;;;;;10.40;2.50;;;;;;;8.51;100.00;96644.13;5026007;28;20780;-70
2022/10/27 02:57:36;;;;;;;14.20;2.30;;;;;;;8.47;100.00;96641.69;5024104;28;20781;-70
2022/10/27 03:00:02;;;;;;;11.52;2.10;;;;;;;8.52;100.00;96641.47;5021504;28;24443;-70
2022/10/27 03:02:29;;;;;;;7.20;2.00;;;;;;;8.52;100.00;96646.66;5031243;28;20889;-70
2022/10/27 03:04:56;;;;;;;8.75;1.80;;;;;;;8.51;100.00;96633.81;5026514;28;21149;-70
2022/10/27 03:07:24;;;;;;;6.57;1.98;;;;;;;8.48;100.00;96643.34;5023655;28;20926;-69
2022/10/27 03:09:51;;;;;;;9.43;1.77;;;;;;;8.42;100.00;96635.03;5020427;28;20836;-70
2022/10/27 03:12:17;;;;;;;10.18;1.70;;;;;;;8.38;100.00;96630.88;5030709;28;24801;-70
2022/10/27 03:14:44;;;;;;;5.30;1.30;;;;;;;8.37;100.00;96631.75;5026874;28;24438;-70
2022/10/27 03:17:10;;;;;;;3.53;1.77;;;;;;;8.37;100.00;96636.91;5023581;28;24462;-70
2022/10/27 03:19:37;;;;;;;5.50;2.08;;;;;;;8.36;100.00;96638.66;5021367;28;24432;-70
2022/10/27 03:22:03;;;;;;;5.07;1.65;;;;;;;8.24;100.00;96647.72;5031258;28;24444;-70
2022/10/27 03:24:31;;;;;;;3.38;1.33;;;;;;;8.19;100.00;96641.94;5028885;28;24988;-70
2022/10/27 03:26:58;;;;;;;4.47;1.55;;;;;;;8.07;100.00;96633.81;5023155;28;24432;-70
2022/10/27 03:29:25;;;;;;;5.40;1.63;;;;;;;8.09;100.00;96643.19;5022617;28;24488;-70
2022/10/27 03:31:52;;;;;;;4.88;1.48;;;;;;;8.01;100.00;96642.63;5029793;28;24981;-70
2022/10/27 03:34:18;;;;;;;3.72;1.30;;;;;;;7.97;100.00;96639.34;5029190;28;24436;-70
2022/10/27 03:36:45;;;;;;;1.75;1.20;;;;;;;7.99;100.00;96645.25;5021675;28;24448;-70
2022/10/27 03:39:11;;;;;;;2.22;1.40;;;;;;;8.02;100.00;96640.91;5024127;28;24435;-70
2022/10/27 03:41:39;;;;;;;4.05;1.58;;;;;;;7.91;100.00;96639.56;5023872;28;20780;-70
2022/10/27 03:44:06;;;;;;;2.45;1.45;;;;;;;8.00;100.00;96633.19;5027308;28;24447;-69
2022/10/27 03:46:32;;;;;;;2.20;1.33;;;;;;;8.09;100.00;96637.19;5029455;28;20783;-70
2022/10/27 03:48:59;;;;;;;3.77;1.67;;;;;;;8.25;100.00;96643.41;5019735;28;24838;-70
2022/10/27 03:51:26;;;;;;;19.40;1.87;;;;;;;8.20;100.00;96642.75;5024784;28;20784;-70
2022/10/27 03:53:52;;;;;;;17.92;1.92;;;;;;;8.26;100.00;96645.06;5030316;28;20833;-70
2022/10/27 03:56:19;;;;;;;63.43;2.60;;;;;;;8.37;100.00;96650.69;5024524;28;24989;-70
2022/10/27 03:58:46;;;;;;;66.10;2.53;;;;;;;8.40;100.00;96650.56;5028255;28;20783;-70
2022/10/27 04:01:13;;;;;;;11.35;1.45;;;;;;;8.42;100.00;96645.34;5029567;28;21377;-70
2022/10/27 04:03:40;;;;;;;49.72;2.22;;;;;;;8.41;100.00;96651.41;5026512;28;24436;-70
2022/10/27 04:06:06;;;;;;;26.35;1.83;;;;;;;8.41;100.00;96654.81;5018640;28;24455;-70
2022/10/27 04:08:33;;;;;;;8.48;1.40;;;;;;;8.51;100.00;96651.88;5025280;28;25016;-68
2022/10/27 04:10:59;;;;;;;48.67;2.47;;;;;;;8.53;100.00;96647.47;5028209;28;24816;-70
2022/10/27 04:13:26;;;;;;;24.67;1.83;;;;;;;8.51;100.00;96657.03;5029579;28;24440;-71
2022/10/27 04:15:54;;;;;;;9.18;1.55;;;;;;;8.41;100.00;96661.72;5026643;28;24432;-73
2022/10/27 04:18:20;;;;;;;7.10;1.38;;;;;;;8.34;100.00;96658.50;5023798;28;21300;-70
2022/10/27 04:20:47;;;;;;;3.47;1.50;;;;;;;8.21;100.00;96655.59;5027047;28;24432;-68
2022/10/27 04:23:13;;;;;;;19.40;1.55;;;;;;;8.21;100.00;96663.31;5025555;28;20780;-70
2022/10/27 04:25:40;;;;;;;18.50;1.88;;;;;;;8.25;100.00;96657.16;5027218;28;24442;-70
2022/10/27 04:28:08;;;;;;;29.42;2.30;;;;;;;8.24;100.00;96659.81;5019034;28;24443;-70
2022/10/27 04:30:35;;;;;;;21.77;1.60;;;;;;;8.21;100.00;96650.44;5024899;28;21150;-70
2022/10/27 04:33:03;;;;;;;15.20;1.60;;;;;;;8.17;100.00;96660.94;5018241;28;20827;-69
2022/10/27 04:35:29;;;;;;;16.40;1.60;;;;;;;8.17;100.00;96663.53;5018132;28;20778;-70
2022/10/27 04:37:56;;;;;;;8.10;1.75;;;;;;;8.07;100.00;96664.75;5029228;28;20788;-70
2022/10/27 04:40:23;;;;;;;6.72;1.27;;;;;;;7.99;100.00;96660.75;5028237;28;24443;-70
2022/10/27 04:42:49;;;;;;;21.67;1.60;;;;;;;7.98;100.00;96661.66;5024789;28;24467;-69
2022/10/27 04:45:16;;;;;;;2.42;1.33;;;;;;;7.93;100.00;96660.13;5027472;28;24459;-70
2022/10/27 04:47:43;;;;;;;4.68;1.40;;;;;;;7.84;100.00;96666.47;5027586;28;24435;-71
2022/10/27 04:50:12;;;;;;;4.55;1.67;;;;;;;7.77;100.00;96665.03;5028710;28;24506;-71
2022/10/27 04:52:38;;;;;;;2.17;1.55;;;;;;;7.77;100.00;96657.28;5029166;28;24443;-71
2022/10/27 04:55:06;;;;;;;5.63;2.33;;;;;;;7.77;100.00;96654.72;5028088;28;24443;-71
2022/10/27 04:57:32;;;;;;;6.28;2.30;;;;;;;7.69;100.00;96652.41;5029306;28;24443;-71
2022/10/27 04:59:59;;;;;;;10.63;1.80;;;;;;;7.72;100.00;96647.16;5027404;28;24451;-71
2022/10/27 05:02:25;;;;;;;8.48;2.28;;;;;;;7.77;100.00;96652.13;5029338;28;24447;-70
2022/10/27 05:04:52;;;;;;;5.22;1.98;;;;;;;7.76;100.00;96659.03;5025000;28;24459;-67
2022/10/27 05:07:20;;;;;;;6.40;2.72;;;;;;;7.72;100.00;96659.22;5028816;28;24447;-69
2022/10/27 05:09:46;;;;;;;7.38;2.00;;;;;;;7.68;100.00;96657.66;5028559;28;20820;-68
2022/10/27 05:12:13;;;;;;;5.13;2.22;;;;;;;7.65;100.00;96645.69;5026832;28;24448;-70
2022/10/27 05:14:39;;;;;;;6.60;2.40;;;;;;;7.60;100.00;96644.19;5027971;28;24436;-70
2022/10/27 05:17:06;;;;;;;8.57;2.80;;;;;;;7.60;100.00;96642.47;5015491;28;24458;-71
2022/10/27 05:19:32;;;;;;;10.13;2.53;;;;;;;7.68;100.00;96644.75;5023581;28;24443;-71
2022/10/27 05:21:58;;;;;;;17.58;2.63;;;;;;;7.62;100.00;96643.22;5024926;28;24801;-70
2022/10/27 05:24:26;;;;;;;14.18;2.70;;;;;;;7.62;100.00;96642.41;5026783;28;24435;-70
2022/10/27 05:26:53;;;;;;;14.23;3.40;;;;;;;7.59;100.00;96639.94;5020022;28;24982;-71
2022/10/27 05:29:19;;;;;;;13.98;3.20;;;;;;;7.63;100.00;96644.91;5027264;28;24466;-70
2022/10/27 05:31:46;;;;;;;8.90;3.70;;;;;;;7.69;100.00;96651.59;5020590;28;24439;-70
2022/10/27 05:34:12;;;;;;;19.83;3.10;;;;;;;7.73;100.00;96642.84;5016737;28;25000;-71
2022/10/27 05:36:39;;;;;;;17.80;1.77;;;;;;;7.80;100.00;96639.13;5028109;28;24443;-70
2022/10/27 05:39:05;;;;;;;3.38;1.80;;;;;;;7.87;100.00;96626.84;5022501;28;20777;-70
2022/10/27 05:41:33;;;;;;;7.40;2.47;;;;;;;7.86;100.00;96630.31;5010302;28;20777;-70
2022/10/27 05:44:00;;;;;;;5.40;2.30;;;;;;;7.83;100.00;96633.88;5023169;28;24436;-70
2022/10/27 05:46:26;;;;;;;3.95;2.38;;;;;;;7.74;100.00;96632.44;5028147;28;24770;-70
2022/10/27 05:48:53;;;;;;;16.17;2.60;;;;;;;7.66;100.00;96628.50;5022532;28;24504;-70
2022/10/27 05:51:19;;;;;;;12.90;2.27;;;;;;;7.62;100.00;96626.94;5028398;28;25354;-68
2022/10/27 05:53:49;;;;;;;7.37;2.33;;;;;;;7.61;100.00;96631.25;5024739;28;24536;-70
2022/10/27 05:56:16;;;;;;;4.72;1.92;;;;;;;7.64;100.00;96630.28;5019134;28;20769;-70
2022/10/27 05:58:44;;;;;;;10.75;2.05;;;;;;;7.70;100.00;96633.47;5026190;28;20787;-70
2022/10/27 06:01:10;;;;;;;13.50;1.98;;;;;;;7.67;100.00;96635.31;5031718;28;20776;-70
2022/10/27 06:03:37;;;;;;;10.57;2.10;;;;;;;7.70;100.00;96632.63;5028133;28;24438;-70
2022/10/27 06:06:04;;;;;;;19.27;2.55;;;;;;;7.67;100.00;96645.63;5018067;28;24439;-70
2022/10/27 06:08:31;;;;;;;4.53;2.15;;;;;;;7.81;100.00;96640.81;5029405;28;24432;-70
2022/10/27 06:10:58;;;;;;;5.65;1.30;;;;;;;7.87;100.00;96640.59;5031805;28;20789;-70
2022/10/27 06:13:24;;;;;;;8.60;1.70;;;;;;;7.91;100.00;96646.47;5029548;28;21313;-70
2022/10/27 06:15:52;;;;;;;5.72;1.25;;;;;;;7.97;100.00;96661.69;5023398;28;24431;-70
2022/10/27 06:18:19;;;;;;;7.38;1.35;;;;;;;8.04;100.00;96659.72;5026755;28;24435;-70
2022/10/27 06:20:45;;;;;;;4.72;1.42;;;;;;;8.01;100.00;96652.97;5026568;28;24433;-70
2022/10/27 06:23:12;;;;;;;4.80;1.35;;;;;;;7.98;100.00;96661.66;5030010;28;24454;-70
2022/10/27 06:25:38;;;;;;;14.05;1.85;;;;;;;7.94;100.00;96654.94;5023059;28;20765;-71
2022/10/27 06:28:05;;;;;;;8.88;1.92;;;;;;;7.96;100.00;96657.44;5025402;28;24432;-70
2022/10/27 06:30:31;;;;;;;8.70;2.25;;;;;;;7.93;100.00;96653.22;5022852;28;20783;-67
2022/10/27 06:32:59;;;;;;;4.18;2.00;;;;;;;7.90;100.00;96648.22;5023722;28;24704;-70
2022/10/27 06:35:26;;;;;;;4.43;1.70;;;;;;;7.81;100.00;96653.69;5025849;28;25302;-70
2022/10/27 06:37:52;;;;;;;4.17;1.70;;;;;;;7.85;100.00;96647.53;5029621;28;24523;-70
2022/10/27 06:40:20;;;;;;;4.83;2.00;;;;;;;7.90;100.00;96650.78;5026862;28;24895;-69
2022/10/27 06:42:49;;;;;;;10.82;2.20;;;;;;;7.80;100.00;96657.19;5029026;28;24435;-69
2022/10/27 06:45:16;;;;;;;4.28;1.90;;;;;;;7.80;100.00;96653.78;5025671;28;24436;-68
2022/10/27 06:47:42;;;;;;;2.90;1.75;;;;;;;7.83;100.00;96654.50;5029102;28;24799;-70
2022/10/27 06:50:11;;;;;;;2.40;2.13;;;;;;;7.87;100.00;96647.47;5027009;28;24460;-70
2022/10/27 06:52:38;;;;;;;2.20;1.65;;;;;;;7.91;100.00;96657.63;5026305;28;24985;-69
2022/10/27 06:55:06;;;;;;;4.80;2.70;;;;;;;8.00;100.00;96659.81;5026616;28;24483;-69
2022/10/27 06:57:39;;;;;;;37.38;7.80;;;;;;;7.99;100.00;96667.63;5029080;28;24458;-70
2022/10/27 07:00:07;;;;;;;45.30;3.30;;;;;;;7.79;100.00;96672.69;5020455;28;24448;-68
2022/10/27 07:02:34;;;;;;;28.67;2.13;;;;;;;7.68;100.00;96675.69;5025652;28;24436;-68
2022/10/27 07:05:00;;;;;;;11.38;1.80;;;;;;;7.85;100.00;96673.31;5026536;28;20801;-68
2022/10/27 07:07:28;;;;;;;12.98;2.70;;;;;;;7.99;100.00;96668.47;5028417;28;24436;-69
2022/10/27 07:09:55;;;;;;;21.23;4.50;;;;;;;7.94;100.00;96672.97;5027679;28;20825;-69
2022/10/27 07:12:21;;;;;;;2.75;2.35;;;;;;;8.14;100.00;96667.03;5027954;28;24439;-69
2022/10/27 07:14:48;;;;;;;2.47;1.58;;;;;;;8.33;100.00;96679.22;5028969;28;24438;-69
2022/10/27 07:17:14;;;;;;;3.60;2.00;;;;;;;8.44;100.00;96670.19;5027285;28;21660;-70
2022/10/27 07:19:41;;;;;;;4.75;1.70;;;;;;;8.57;100.00;96667.97;5030352;28;20768;-68
2022/10/27 07:22:08;;;;;;;8.70;1.58;;;;;;;8.65;100.00;96676.25;5019836;28;24439;-68
2022/10/27 07:24:35;;;;;;;2.88;1.55;;;;;;;8.76;100.00;96678.38;5030609;28;24817;-69
2022/10/27 07:27:02;;;;;;;2.00;1.50;;;;;;;8.71;100.00;96678.59;5025769;28;24435;-69
2022/10/27 07:29:29;;;;;;;5.10;1.63;;;;;;;8.67;100.00;96684.75;5030408;28;24467;-69
2022/10/27 07:31:57;;;;;;;4.63;2.13;;;;;;;8.79;100.00;96698.06;5026224;28;20778;-68
2022/10/27 07:34:23;;;;;;;3.92;2.17;;;;;;;9.04;100.00;96690.97;5030982;28;21425;-68
2022/10/27 07:36:50;;;;;;;7.13;4.55;;;;;;;9.39;100.00;96692.09;5025591;28;24435;-70
2022/10/27 07:39:16;;;;;;;5.45;2.63;;;;;;;9.50;100.00;96699.38;5030590;28;25034;-69
2022/10/27 07:41:44;;;;;;;18.77;8.88;;;;;;;9.62;100.00;96706.59;5025762;28;24515;-69
2022/10/27 07:44:11;;;;;;;8.90;5.57;;;;;;;9.65;100.00;96700.44;5030595;28;20773;-69
2022/10/27 07:46:37;;;;;;;14.27;7.20;;;;;;;9.69;100.00;96707.16;5018076;28;20774;-69
2022/10/27 07:49:04;;;;;;;5.90;2.58;;;;;;;10.11;100.00;96712.13;5030460;28;24443;-69
2022/10/27 07:51:30;;;;;;;2.17;1.60;;;;;;;10.09;100.00;96713.13;5026811;28;25035;-69
2022/10/27 07:53:57;;;;;;;5.53;3.05;;;;;;;10.20;100.00;96716.06;5029755;28;24428;-70
2022/10/27 07:56:23;;;;;;;10.45;4.63;;;;;;;10.38;100.00;96712.66;5027191;28;24442;-70
2022/10/27 07:58:51;;;;;;;4.57;3.00;;;;;;;10.85;100.00;96712.13;5030583;28;24439;-71
2022/10/27 08:01:18;;;;;;;6.38;2.63;;;;;;;11.02;100.00;96713.91;5027934;28;24435;-70
2022/10/27 08:03:44;;;;;;;7.10;2.03;;;;;;;11.27;100.00;96720.44;5025980;28;24435;-68
2022/10/27 08:06:11;;;;;;;3.97;2.15;;;;;;;11.51;100.00;96718.38;5027148;28;24443;-68
2022/10/27 08:08:37;;;;;;;3.75;2.00;;;;;;;11.64;100.00;96716.78;5025313;28;24458;-68
2022/10/27 08:11:04;;;;;;;11.52;2.92;;;;;;;11.76;100.00;96707.56;5029954;28;24454;-69
2022/10/27 08:13:30;;;;;;;6.20;2.30;;;;;;;11.76;100.00;96712.75;5022985;28;24471;-69
2022/10/27 08:15:59;;;;;;;3.30;2.10;;;;;;;12.09;100.00;96710.97;5026972;28;24427;-69
2022/10/27 08:18:25;;;;;;;4.55;2.63;;;;;;;12.37;100.00;96711.25;5022187;28;24436;-69
2022/10/27 08:20:52;;;;;;;5.45;2.42;;;;;;;12.37;100.00;96712.06;5026698;28;24470;-69
2022/10/27 08:23:20;;;;;;;13.90;3.60;;;;;;;12.20;100.00;96717.34;5025635;28;24438;-70
2022/10/27 08:25:47;;;;;;;11.95;5.63;;;;;;;12.19;100.00;96715.66;5028006;28;24493;-71
2022/10/27 08:28:15;;;;;;;9.55;3.55;;;;;;;12.07;100.00;96706.78;5024837;28;24440;-69
2022/10/27 08:30:42;;;;;;;4.15;1.95;;;;;;;12.12;100.00;96715.16;5028041;28;24455;-70
2022/10/27 08:33:10;;;;;;;7.57;3.38;;;;;;;12.18;100.00;96724.38;5025953;28;24432;-70
2022/10/27 08:35:37;;;;;;;7.75;2.50;;;;;;;12.35;100.00;96713.94;5027647;28;24425;-69
2022/10/27 08:38:05;;;;;;;6.05;3.30;;;;;;;12.50;100.00;96720.03;5025775;28;24439;-68
2022/10/27 08:40:40;;;;;;;6.53;3.25;;;;;;;12.79;100.00;96726.19;5024633;28;24431;-69
2022/10/27 08:43:32;;;;;;;9.60;2.72;;;;;;;13.09;100.00;96721.03;5020365;28;25021;-69
2022/10/27 08:46:03;;;;;;;5.05;2.13;;;;;;;13.49;100.00;96726.53;5027822;28;24435;-69
2022/10/27 08:48:33;;;;;;;5.30;2.28;;;;;;;13.86;100.00;96725.16;5017442;28;24433;-69
2022/10/27 08:51:01;;;;;;;3.75;1.98;;;;;;;14.20;100.00;96726.56;5028160;28;24451;-69
2022/10/27 08:53:32;;;;;;;7.00;2.60;;;;;;;14.48;100.00;96727.41;5025690;28;25003;-69
2022/10/27 08:56:04;;;;;;;5.40;2.47;;;;;;;14.76;100.00;96722.16;5027695;28;24435;-69
2022/10/27 08:58:36;;;;;;;8.48;3.00;;;;;;;15.05;100.00;96719.41;5026014;28;24470;-69
2022/10/27 09:01:13;;;;;;;8.43;2.87;;;;;;;14.92;100.00;96726.38;5020906;28;24508;-69
2022/10/27 09:03:55;;;;;;;5.53;2.85;;;;;;;14.77;100.00;96718.59;5026354;28;24436;-69
2022/10/27 09:06:27;;;;;;;6.90;2.70;;;;;;;14.67;100.00;96714.06;5028008;28;24439;-69
2022/10/27 09:09:04;;;;;;;5.60;2.60;;;;;;;14.76;100.00;96718.72;5026487;28;25000;-70
2022/10/27 09:11:43;;;;;;;6.30;2.63;;;;;;;14.75;100.00;96717.03;5020812;28;24452;-70
2022/10/27 09:14:46;;;;;;;8.30;2.70;;;;;;;14.77;100.00;96718.59;5019886;28;24432;-70
2022/10/27 09:17:19;;;;;;;10.25;3.00;;;;;;;14.91;100.00;96709.91;5020477;28;24443;-71
2022/10/27 09:19:50;;;;;;;6.53;2.53;;;;;;;15.09;100.00;96713.09;5026995;28;24485;-69
2022/10/27 09:22:18;;;;;;;6.30;2.50;;;;;;;15.42;100.00;96703.91;5024178;28;24454;-70
2022/10/27 09:24:51;;;;;;;7.35;2.58;;;;;;;15.81;100.00;96705.63;5025466;28;24992;-70
2022/10/27 09:27:18;;;;;;;7.97;2.80;;;;;;;16.15;100.00;96709.34;5024143;28;24435;-70
2022/10/27 09:29:48;;;;;;;6.13;2.53;;;;;;;16.58;100.00;96700.25;5029406;28;24443;-70
2022/10/27 09:32:20;;;;;;;9.77;2.70;;;;;;;16.79;100.00;96706.56;5027964;28;24435;-69
2022/10/27 09:34:53;;;;;;;7.10;2.42;;;;;;;17.05;100.00;96703.81;5029915;28;24961;-69
2022/10/27 09:37:20;;;;;;;7.55;2.85;;;;;;;17.50;100.00;96712.66;5028788;28;24436;-71
2022/10/27 09:39:48;;;;;;;11.60;2.80;;;;;;;17.49;100.00;96721.44;5031542;28;24980;-71
2022/10/27 09:42:16;;;;;;;6.27;2.40;;;;;;;17.53;100.00;96712.41;5028699;28;24438;-70
2022/10/27 09:44:54;;;;;;;8.25;3.00;;;;;;;17.63;100.00;96716.00;5029453;28;24968;-70
2022/10/27 09:47:22;;;;;;;8.00;2.75;;;;;;;17.23;100.00;96715.53;5023609;28;24436;-70
2022/10/27 09:49:52;;;;;;;6.57;2.80;;;;;;;17.60;100.00;96720.63;5031631;28;24435;-69
2022/10/27 09:52:24;;;;;;;7.10;2.75;;;;;;;17.48;100.00;96719.78;5028724;28;24546;-70
2022/10/27 09:54:52;;;;;;;10.57;3.13;;;;;;;17.50;100.00;96715.28;5028309;28;24442;-68
2022/10/27 09:57:22;;;;;;;11.03;3.10;;;;;;;17.83;100.00;96713.66;5026886;28;24534;-71
2022/10/27 09:59:52;;;;;;;8.25;2.88;;;;;;;17.65;100.00;96708.88;5031708;28;24439;-69
2022/10/27 10:02:24;;;;;;;5.63;2.70;;;;;;;17.78;100.00;96707.97;5029392;28;24439;-71
2022/10/27 10:04:52;;;;;;;6.00;2.50;;;;;;;18.12;100.00;96706.16;5031133;28;24436;-70
2022/10/27 10:07:35;;;;;;;6.40;2.45;;;;;;;18.09;100.00;96699.38;5029266;28;24438;-69
2022/10/27 10:10:04;;;;;;;9.05;3.03;;;;;;;18.10;100.00;96703.69;5031914;28;24991;-69
2022/10/27 10:12:31;;;;;;;6.70;2.58;;;;;;;18.07;100.00;96706.53;5029123;28;24817;-69
2022/10/27 10:15:19;;;;;;;7.72;2.85;;;;;;;18.01;100.00;96698.31;5031300;28;24443;-69
2022/10/27 10:17:53;;;;;;;12.10;2.92;;;;;;;17.93;100.00;96698.91;5029208;28;24435;-69
2022/10/27 10:20:36;;;;;;;10.07;3.08;;;;;;;17.83;100.00;96700.56;5032019;28;24432;-68
2022/10/27 10:23:20;;;;;;;6.85;3.00;;;;;;;17.89;100.00;96700.94;5029993;28;24531;-69
2022/10/27 10:25:48;;;;;;;7.22;2.38;;;;;;;17.83;100.00;96697.94;5024381;28;24428;-68
2022/10/27 10:28:20;;;;;;;12.85;2.88;;;;;;;17.93;100.00;96698.06;5031394;28;24447;-69
2022/10/27 10:30:51;;;;;;;12.27;2.65;;;;;;;17.82;100.00;96701.53;5024982;28;24452;-71
2022/10/27 10:33:18;;;;;;;5.85;2.38;;;;;;;17.93;100.00;96698.06;5026559;28;24440;-69
2022/10/27 10:35:48;;;;;;;8.43;2.53;;;;;;;18.04;100.00;96695.47;5018255;28;24443;-69
2022/10/27 10:38:26;;;;;;;5.80;2.55;;;;;;;18.47;100.00;96685.03;5031802;28;24511;-69
2022/10/27 10:41:00;;;;;;;8.45;2.70;;;;;;;18.27;100.00;96698.88;5023692;28;24502;-69
2022/10/27 10:43:26;;;;;;;6.23;2.50;;;;;;;18.44;100.00;96685.28;5031680;28;24431;-69
2022/10/27 10:45:53;;;;;;;11.90;2.75;;;;;;;18.14;100.00;96692.00;5024834;28;24427;-70
2022/10/27 10:48:33;;;;;;;12.45;3.30;;;;;;;18.14;100.00;96689.38;5031423;28;24817;-70
2022/10/27 10:51:01;;;;;;;6.60;2.75;;;;;;;18.11;100.00;96692.22;5019069;28;24930;-70
2022/10/27 10:53:32;;;;;;;10.68;2.78;;;;;;;18.09;100.00;96681.03;5031536;28;24440;-70
2022/10/27 10:56:02;;;;;;;8.25;2.42;;;;;;;18.08;100.00;96683.78;5018611;28;24438;-69
2022/10/27 10:58:31;;;;;;;7.72;2.38;;;;;;;18.10;100.00;96677.47;5032506;28;24462;-70
2022/10/27 11:01:00;;;;;;;5.50;2.33;;;;;;;18.04;100.00;96674.50;5026420;28;24431;-70
2022/10/27 11:03:31;;;;;;;11.88;2.63;;;;;;;18.02;100.00;96669.38;5032095;28;25012;-71
2022/10/27 11:06:02;;;;;;;8.00;2.78;;;;;;;18.28;100.00;96664.69;5026002;28;24435;-71
2022/10/27 11:08:37;;;;;;;7.90;2.88;;;;;;;18.30;100.00;96662.78;5031465;28;24478;-71
2022/10/27 11:11:09;;;;;;;5.75;2.33;;;;;;;18.24;100.00;96660.63;5026843;28;24848;-69
2022/10/27 11:13:46;;;;;;;11.85;2.50;;;;;;;18.18;100.00;96661.13;5031088;28;24431;-70
2022/10/27 11:16:13;;;;;;;7.43;2.40;;;;;;;18.13;100.00;96655.41;5028140;28;24435;-70
2022/10/27 11:18:48;;;;;;;6.93;2.55;;;;;;;18.13;100.00;96660.63;5030195;28;24435;-70
2022/10/27 11:21:25;;;;;;;8.90;2.30;;;;;;;18.28;100.00;96655.97;5029395;28;24435;-70
2022/10/27 11:23:56;;;;;;;8.90;2.83;;;;;;;18.52;100.00;96659.25;5028841;28;24432;-70
2022/10/27 11:26:27;;;;;;;7.88;2.42;;;;;;;18.52;100.00;96651.41;5024585;28;24439;-70
2022/10/27 11:29:02;;;;;;;8.95;2.85;;;;;;;18.52;100.00;96653.19;5028023;28;24443;-70
2022/10/27 11:31:40;;;;;;;5.75;2.20;;;;;;;18.57;100.00;96649.22;5025958;28;24451;-70
2022/10/27 11:34:14;;;;;;;6.47;2.60;;;;;;;18.51;100.00;96648.91;5023128;28;24439;-70
2022/10/27 11:36:47;;;;;;;12.85;2.45;;;;;;;18.48;100.00;96646.53;5029888;28;25214;-70
2022/10/27 11:39:21;;;;;;;5.63;2.15;;;;;;;18.56;100.00;96649.34;5027524;28;24436;-70